Time;durP1;ratioP1;P1;durP2;ratioP2;P2;SDS_P1;SDS_P2;PMS_P1;PMS_P2;Temp;Humidity;BMP_temperature;BMP_pressure;BME280_temperature;BME280_humidity;BME280_pressure;Samples;Min_cycle;Max_cycle;Signal;HPM_P1;HPM_P2
2022/06/20 00:00:23;;;;;;;10.65;6.38;;;25.90;93.70;;;;;;5015516;28;20248;-68
2022/06/20 00:02:53;;;;;;;11.75;6.13;;;25.90;94.00;;;;;;5015233;28;20756;-68
2022/06/20 00:05:27;;;;;;;11.73;6.35;;;25.90;93.90;;;;;;5012090;28;20223;-67
2022/06/20 00:07:53;;;;;;;8.75;5.55;;;25.90;93.70;;;;;;5014006;28;20584;-68
2022/06/20 00:10:23;;;;;;;9.57;6.13;;;25.90;94.40;;;;;;5004482;28;20212;-68
2022/06/20 00:12:52;;;;;;;8.77;5.90;;;25.90;94.30;;;;;;4994315;28;20187;-68
2022/06/20 00:15:34;;;;;;;11.75;6.05;;;25.90;94.40;;;;;;4995137;28;20188;-67
2022/06/20 00:18:03;;;;;;;9.95;5.93;;;25.90;95.20;;;;;;4995212;28;20284;-68
2022/06/20 00:20:29;;;;;;;6.93;5.50;;;25.90;95.80;;;;;;4993974;28;20197;-67
2022/06/20 00:22:56;;;;;;;8.82;6.25;;;25.90;96.00;;;;;;4995185;28;20205;-68
2022/06/20 00:25:22;;;;;;;6.93;6.22;;;25.90;96.60;;;;;;4994823;28;20194;-67
2022/06/20 00:27:51;;;;;;;7.78;5.68;;;25.90;96.00;;;;;;4993886;28;20292;-68
2022/06/20 00:30:18;;;;;;;9.35;6.20;;;25.80;95.10;;;;;;4994029;28;20254;-68
2022/06/20 00:32:44;;;;;;;8.50;6.15;;;25.90;95.40;;;;;;4977911;28;20185;-68
2022/06/20 00:35:10;;;;;;;11.65;6.05;;;25.80;94.50;;;;;;4995193;28;20193;-68
2022/06/20 00:37:37;;;;;;;8.90;6.22;;;25.90;94.10;;;;;;4993427;28;20299;-68
2022/06/20 00:40:18;;;;;;;7.35;5.68;;;25.90;95.30;;;;;;4993832;28;20213;-68
2022/06/20 00:42:44;;;;;;;9.35;6.40;;;25.80;95.10;;;;;;4994969;28;20267;-68
2022/06/20 00:45:12;;;;;;;8.57;5.97;;;25.80;95.30;;;;;;4993538;28;20256;-69
2022/06/20 00:47:39;;;;;;;8.77;5.65;;;25.80;94.70;;;;;;4976936;28;20599;-68
2022/06/20 00:50:21;;;;;;;6.10;5.40;;;25.80;94.50;;;;;;4993544;28;20289;-68
2022/06/20 00:52:59;;;;;;;10.18;5.63;;;25.80;94.90;;;;;;4994809;28;20184;-67
2022/06/20 00:55:42;;;;;;;7.50;6.03;;;25.80;95.40;;;;;;4993058;28;20245;-67
2022/06/20 00:58:23;;;;;;;8.00;6.05;;;25.80;95.70;;;;;;4994624;28;20224;-68
2022/06/20 01:00:49;;;;;;;12.50;5.70;;;25.80;95.10;;;;;;4993527;28;20208;-68
2022/06/20 01:03:24;;;;;;;6.75;6.05;;;25.80;94.40;;;;;;4977360;28;20280;-68
2022/06/20 01:05:59;;;;;;;6.80;6.13;;;25.80;94.50;;;;;;4992753;28;20624;-67
2022/06/20 01:08:32;;;;;;;6.25;5.65;;;25.80;94.70;;;;;;4994343;28;20223;-68
2022/06/20 01:11:03;;;;;;;7.20;5.53;;;25.80;94.40;;;;;;4993051;28;20231;-68
2022/06/20 01:13:29;;;;;;;7.55;5.47;;;25.80;94.30;;;;;;4993120;28;20177;-68
2022/06/20 01:16:08;;;;;;;6.55;5.50;;;25.80;94.10;;;;;;4976042;28;20185;-67
2022/06/20 01:18:35;;;;;;;7.45;6.00;;;25.80;93.80;;;;;;4992893;28;20208;-68
2022/06/20 01:21:19;;;;;;;8.30;6.13;;;25.80;94.20;;;;;;4977110;28;20212;-68
2022/06/20 01:24:06;;;;;;;8.00;6.05;;;25.80;94.70;;;;;;4993160;28;20211;-68
2022/06/20 01:27:10;;;;;;;6.85;5.80;;;25.80;93.90;;;;;;4992153;28;20683;-67
2022/06/20 01:29:36;;;;;;;6.15;5.50;;;25.80;93.60;;;;;;4995977;28;20235;-68
2022/06/20 01:32:05;;;;;;;8.68;6.00;;;25.80;93.40;;;;;;4992985;28;20189;-68
2022/06/20 01:34:33;;;;;;;8.15;5.82;;;25.80;93.50;;;;;;5009094;28;20255;-68
2022/06/20 01:37:25;;;;;;;7.40;5.60;;;25.80;93.50;;;;;;4993127;28;20232;-68
2022/06/20 01:40:00;;;;;;;7.97;5.80;;;25.70;93.50;;;;;;5008894;28;20259;-68
2022/06/20 01:42:29;;;;;;;10.77;5.85;;;25.80;94.20;;;;;;4976396;28;20198;-68
2022/06/20 01:45:57;;;;;;;12.10;6.07;;;25.80;93.70;;;;;;4976287;28;20188;-68
2022/06/20 01:48:00;;;;;;;9.70;5.50;;;25.70;93.20;;;;;;4993500;28;20188;-68
2022/06/20 01:50:26;;;;;;;7.35;5.88;;;25.80;92.80;;;;;;4992590;28;20262;-69
2022/06/20 01:52:52;;;;;;;9.50;5.90;;;25.70;92.80;;;;;;5009054;28;20193;-68
2022/06/20 01:55:24;;;;;;;11.85;6.25;;;25.80;93.10;;;;;;4992204;28;20231;-67
2022/06/20 01:58:09;;;;;;;14.77;6.28;;;25.80;93.00;;;;;;4992232;28;20233;-67
2022/06/20 02:00:36;;;;;;;17.58;7.25;;;25.70;93.00;;;;;;5008905;28;20247;-68
2022/06/20 02:03:11;;;;;;;19.13;7.20;;;25.70;94.10;;;;;;4992197;28;20188;-68
2022/06/20 02:05:37;;;;;;;13.02;6.18;;;25.80;93.90;;;;;;4992887;28;20181;-68
2022/06/20 02:08:07;;;;;;;22.02;6.97;;;25.80;94.10;;;;;;4992238;28;20184;-69
2022/06/20 02:10:45;;;;;;;18.00;6.15;;;25.70;93.60;;;;;;4991713;28;20216;-68
2022/06/20 02:13:14;;;;;;;20.08;6.95;;;25.80;93.10;;;;;;4992134;28;20192;-69
2022/06/20 02:15:42;;;;;;;17.13;7.13;;;25.80;93.10;;;;;;4991446;28;20187;-68
2022/06/20 02:18:08;;;;;;;14.85;6.68;;;25.70;92.50;;;;;;4992049;28;20247;-68
2022/06/20 02:20:45;;;;;;;14.77;5.95;;;25.70;92.40;;;;;;4976006;28;20201;-69
2022/06/20 02:23:27;;;;;;;15.00;6.00;;;25.70;92.40;;;;;;4991906;28;20177;-69
2022/06/20 02:25:55;;;;;;;9.30;6.15;;;25.80;92.40;;;;;;4992533;28;20169;-68
2022/06/20 02:28:40;;;;;;;16.08;6.63;;;25.70;92.40;;;;;;4992713;28;20188;-68
2022/06/20 02:31:08;;;;;;;10.93;6.03;;;25.70;92.50;;;;;;4993016;28;20211;-68
2022/06/20 02:33:34;;;;;;;12.98;6.15;;;25.70;93.20;;;;;;4993028;28;20193;-68
2022/06/20 02:36:04;;;;;;;12.32;6.15;;;25.70;93.00;;;;;;4991565;28;20184;-68
2022/06/20 02:38:31;;;;;;;13.27;6.78;;;25.70;93.00;;;;;;4991833;28;20209;-68
2022/06/20 02:40:58;;;;;;;17.88;6.55;;;25.70;92.60;;;;;;4991729;28;20195;-68
2022/06/20 02:43:43;;;;;;;24.27;7.22;;;25.80;92.00;;;;;;4975535;28;20183;-68
2022/06/20 02:46:14;;;;;;;15.48;6.28;;;25.70;92.10;;;;;;4992672;28;20165;-67
2022/06/20 02:48:45;;;;;;;16.00;6.07;;;25.80;92.50;;;;;;4991765;28;20173;-68
2022/06/20 02:51:35;;;;;;;21.52;6.78;;;25.70;92.50;;;;;;4992908;28;20193;-68
2022/06/20 02:54:05;;;;;;;17.80;5.97;;;25.70;92.40;;;;;;4984543;28;20191;-68
2022/06/20 02:56:40;;;;;;;15.50;6.05;;;25.70;92.50;;;;;;4991085;28;20192;-67
2022/06/20 02:59:22;;;;;;;15.52;6.95;;;25.60;92.70;;;;;;4992979;28;20220;-68
2022/06/20 03:02:09;;;;;;;16.75;6.03;;;25.70;92.90;;;;;;4991882;28;20227;-68
2022/06/20 03:04:40;;;;;;;14.25;6.07;;;25.60;92.90;;;;;;4991454;28;20177;-67
2022/06/20 03:07:36;;;;;;;14.70;6.30;;;25.70;92.10;;;;;;4991388;28;20204;-67
2022/06/20 03:10:34;;;;;;;14.75;6.65;;;25.60;92.20;;;;;;4992225;28;20205;-67
2022/06/20 03:13:01;;;;;;;17.70;6.97;;;25.60;92.10;;;;;;4992721;28;20188;-68
2022/06/20 03:15:30;;;;;;;14.07;6.25;;;25.70;92.80;;;;;;5007775;28;20196;-68
2022/06/20 03:17:57;;;;;;;13.40;6.65;;;25.70;93.00;;;;;;4991265;28;20240;-68
2022/06/20 03:20:25;;;;;;;11.75;5.93;;;25.60;92.70;;;;;;4992605;28;20201;-68
2022/06/20 03:23:12;;;;;;;12.23;6.45;;;25.70;92.80;;;;;;4991449;28;20192;-68
2022/06/20 03:25:40;;;;;;;17.65;7.00;;;25.70;92.40;;;;;;4992094;28;20239;-67
2022/06/20 03:28:13;;;;;;;14.05;5.93;;;25.70;91.40;;;;;;5007775;28;20212;-68
2022/06/20 03:30:39;;;;;;;16.63;6.95;;;25.70;92.20;;;;;;4991542;28;20303;-68
2022/06/20 03:33:11;;;;;;;16.63;7.03;;;25.70;92.50;;;;;;5007433;28;20181;-68
2022/06/20 03:35:42;;;;;;;12.85;6.68;;;25.70;92.20;;;;;;4991127;28;20191;-68
2022/06/20 03:38:11;;;;;;;12.98;6.20;;;25.60;92.10;;;;;;4991211;28;20240;-68
2022/06/20 03:40:39;;;;;;;15.50;6.43;;;25.60;92.30;;;;;;4993552;28;20308;-68
2022/06/20 03:43:08;;;;;;;14.57;6.20;;;25.60;92.30;;;;;;4996036;28;20259;-68
2022/06/20 03:45:41;;;;;;;14.15;6.50;;;25.60;92.50;;;;;;4994163;28;20169;-66
2022/06/20 03:48:32;;;;;;;9.05;6.15;;;25.60;92.30;;;;;;4994703;28;20235;-68
2022/06/20 03:51:06;;;;;;;17.85;6.55;;;25.60;92.70;;;;;;4994663;28;20214;-68
2022/06/20 03:53:44;;;;;;;11.00;6.03;;;25.60;92.40;;;;;;5011077;28;20617;-68
2022/06/20 03:56:20;;;;;;;11.32;6.07;;;25.60;92.20;;;;;;5010600;28;20219;-68
2022/06/20 03:59:26;;;;;;;12.25;5.97;;;25.60;92.20;;;;;;4995616;28;20207;-68
2022/06/20 04:02:06;;;;;;;12.20;5.95;;;25.50;92.30;;;;;;4970624;28;20206;-68
2022/06/20 04:05:07;;;;;;;18.83;6.60;;;25.60;92.90;;;;;;4976754;28;20189;-68
2022/06/20 04:08:00;;;;;;;14.15;6.25;;;25.70;93.60;;;;;;5030068;28;20229;-68
2022/06/20 04:13:50;;;;;;;11.32;5.95;;;25.60;91.70;;;;;;4994570;28;20212;-68
2022/06/20 04:16:31;;;;;;;14.88;6.70;;;25.60;91.90;;;;;;4993734;28;20263;-68
2022/06/20 04:19:22;;;;;;;15.93;6.03;;;25.60;92.30;;;;;;4993977;28;20220;-68
2022/06/20 04:22:17;;;;;;;10.77;6.38;;;25.60;91.30;;;;;;4994261;28;20425;-68
2022/06/20 04:25:01;;;;;;;14.30;5.65;;;25.60;91.30;;;;;;4995255;28;20169;-68
2022/06/20 04:27:36;;;;;;;9.93;6.85;;;25.50;91.10;;;;;;4991750;28;20184;-68
2022/06/20 04:30:10;;;;;;;10.85;6.28;;;25.50;91.00;;;;;;4958304;28;20245;-68
2022/06/20 04:32:38;;;;;;;11.07;6.95;;;25.60;91.00;;;;;;4974559;28;20182;-68
2022/06/20 04:35:31;;;;;;;11.75;7.50;;;25.30;85.10;;;;;;4974290;28;20253;-68
2022/06/20 04:38:30;;;;;;;8.00;7.10;;;24.80;87.40;;;;;;4973848;28;20221;-69
2022/06/20 04:41:09;;;;;;;12.40;8.10;;;24.50;87.10;;;;;;4962368;28;20196;-69
2022/06/20 04:43:53;;;;;;;9.02;7.63;;;24.50;81.40;;;;;;5010102;28;20173;-68
2022/06/20 04:46:35;;;;;;;12.75;7.25;;;24.50;78.90;;;;;;4993351;28;20272;-68
2022/06/20 04:49:02;;;;;;;11.48;7.35;;;24.50;76.80;;;;;;4993603;28;20173;-68
2022/06/20 04:51:38;;;;;;;13.57;7.03;;;24.40;75.30;;;;;;5009178;28;20196;-68
2022/06/20 04:54:12;;;;;;;10.73;7.07;;;24.50;72.90;;;;;;4993808;28;20181;-68
2022/06/20 04:56:40;;;;;;;12.60;6.10;;;24.40;72.50;;;;;;4993877;28;20204;-68
2022/06/20 04:59:13;;;;;;;9.00;6.53;;;24.40;72.20;;;;;;4993711;28;20675;-68
2022/06/20 05:01:40;;;;;;;10.45;6.80;;;24.40;72.50;;;;;;4977185;28;20344;-68
2022/06/20 05:04:32;;;;;;;8.32;6.40;;;24.30;72.70;;;;;;4993350;28;20185;-68
2022/06/20 05:07:05;;;;;;;14.05;6.25;;;24.30;73.50;;;;;;4992638;28;20180;-68
2022/06/20 05:09:44;;;;;;;9.52;6.05;;;24.30;73.50;;;;;;4992895;28;20209;-68
2022/06/20 05:12:46;;;;;;;11.68;5.93;;;24.50;73.80;;;;;;5009500;28;20196;-69
2022/06/20 05:15:24;;;;;;;9.13;6.30;;;24.70;73.40;;;;;;4972474;28;20220;-68
2022/06/20 05:17:52;;;;;;;8.38;5.63;;;24.80;73.10;;;;;;4976448;28;20212;-68
2022/06/20 05:20:36;;;;;;;8.30;5.97;;;24.90;73.90;;;;;;4976808;28;20204;-68
2022/06/20 05:23:37;;;;;;;8.05;5.93;;;24.90;75.30;;;;;;4993344;28;20187;-68
2022/06/20 05:26:06;;;;;;;10.45;6.28;;;24.90;78.00;;;;;;5011758;28;20186;-68
2022/06/20 05:28:36;;;;;;;9.65;5.85;;;24.80;80.50;;;;;;5012474;28;20203;-68
2022/06/20 05:31:03;;;;;;;12.02;6.15;;;24.80;80.50;;;;;;5003613;28;20224;-68
2022/06/20 05:34:23;;;;;;;11.77;6.85;;;24.80;83.50;;;;;;4991654;28;20201;-67
2022/06/20 05:37:12;;;;;;;9.10;6.22;;;24.80;85.60;;;;;;4918813;29;20197;-68
2022/06/20 05:39:50;;;;;;;13.93;7.18;;;24.80;86.30;;;;;;4942002;29;20218;-69
2022/06/20 05:42:19;;;;;;;17.17;6.72;;;24.70;88.10;;;;;;4977051;28;20200;-69
2022/06/20 05:44:45;;;;;;;12.88;6.80;;;24.80;89.80;;;;;;5005591;28;20187;-68
2022/06/20 05:47:24;;;;;;;12.10;6.55;;;24.80;90.30;;;;;;5012113;28;20197;-68
2022/06/20 05:50:05;;;;;;;7.53;6.20;;;24.70;90.50;;;;;;4957086;28;20212;-69
2022/06/20 05:52:33;;;;;;;11.38;6.68;;;24.80;90.60;;;;;;4982287;28;20215;-70
2022/06/20 05:55:22;;;;;;;15.88;7.03;;;24.70;91.90;;;;;;4991412;28;20661;-68
2022/06/20 05:57:49;;;;;;;11.93;6.20;;;24.80;90.00;;;;;;4991279;28;20247;-68
2022/06/20 06:00:22;;;;;;;13.05;6.65;;;24.90;89.20;;;;;;4992527;28;20251;-69
2022/06/20 06:03:04;;;;;;;10.85;6.32;;;25.00;89.60;;;;;;4990874;28;20649;-69
2022/06/20 06:05:42;;;;;;;12.38;6.55;;;25.10;89.40;;;;;;4992190;28;20212;-68
2022/06/20 06:08:40;;;;;;;11.43;6.18;;;25.00;90.00;;;;;;4992078;28;20244;-69
2022/06/20 06:11:39;;;;;;;13.02;5.85;;;25.10;90.00;;;;;;4993641;28;20211;-70
2022/06/20 06:14:18;;;;;;;8.88;6.18;;;25.00;91.90;;;;;;4988976;28;20284;-70
2022/06/20 06:17:20;;;;;;;10.55;5.95;;;25.00;90.40;;;;;;4972046;28;20197;-70
2022/06/20 06:19:57;;;;;;;8.70;5.75;;;25.10;90.00;;;;;;4989545;28;20271;-69
2022/06/20 06:22:32;;;;;;;9.88;6.10;;;25.10;88.80;;;;;;4991690;28;20196;-69
2022/06/20 06:25:31;;;;;;;13.48;6.50;;;25.20;88.00;;;;;;4975483;28;20272;-69
2022/06/20 06:28:08;;;;;;;8.55;6.05;;;25.20;87.30;;;;;;4974558;28;20200;-69
2022/06/20 06:31:12;;;;;;;10.25;6.38;;;25.20;87.10;;;;;;4991693;28;20286;-69
2022/06/20 06:33:51;;;;;;;9.57;6.00;;;25.20;87.40;;;;;;4991366;28;20271;-69
2022/06/20 06:36:43;;;;;;;8.30;6.18;;;25.20;87.60;;;;;;5007562;28;20189;-69
2022/06/20 06:39:29;;;;;;;10.05;6.22;;;25.20;87.00;;;;;;4984655;28;20750;-70
2022/06/20 06:42:04;;;;;;;10.63;6.43;;;25.10;91.60;;;;;;4980116;28;20192;-68
2022/06/20 06:44:38;;;;;;;9.98;7.53;;;24.80;95.40;;;;;;4987998;28;20216;-68
2022/06/20 06:47:14;;;;;;;11.63;6.90;;;24.50;99.90;;;;;;4987873;28;20287;-68
2022/06/20 06:49:46;;;;;;;8.18;6.57;;;24.20;99.90;;;;;;4990090;28;20270;-68
2022/06/20 06:52:33;;;;;;;7.50;5.75;;;24.00;99.90;;;;;;4991733;28;20236;-68
2022/06/20 06:55:50;;;;;;;11.82;7.15;;;23.90;99.90;;;;;;4991411;28;20181;-69
2022/06/20 06:58:52;;;;;;;11.77;6.50;;;24.10;99.90;;;;;;4989453;28;20225;-69
2022/06/20 07:01:35;;;;;;;11.32;6.28;;;24.50;99.90;;;;;;4988663;28;20177;-69
2022/06/20 07:04:46;;;;;;;9.68;6.60;;;24.70;99.90;;;;;;4972562;28;20198;-69
2022/06/20 07:07:28;;;;;;;9.18;6.38;;;24.80;97.80;;;;;;4973355;28;20208;-68
2022/06/20 07:09:56;;;;;;;10.43;5.90;;;25.00;95.80;;;;;;4971669;28;20210;-69
2022/06/20 07:12:43;;;;;;;8.63;5.95;;;25.10;95.20;;;;;;4991122;28;20221;-68
2022/06/20 07:15:15;;;;;;;10.05;5.75;;;25.10;95.90;;;;;;4993578;28;20275;-69
2022/06/20 07:17:56;;;;;;;8.95;5.82;;;25.20;94.20;;;;;;4994543;28;20212;-69
2022/06/20 07:20:35;;;;;;;11.07;6.15;;;25.20;93.60;;;;;;4994895;28;20251;-68
2022/06/20 07:23:05;;;;;;;7.68;5.93;;;25.30;94.20;;;;;;4988176;28;20178;-68
2022/06/20 07:25:38;;;;;;;7.43;5.90;;;25.20;95.60;;;;;;4984178;28;20208;-68
2022/06/20 07:28:49;;;;;;;9.63;5.78;;;25.30;96.50;;;;;;5003037;28;20192;-69
2022/06/20 07:31:25;;;;;;;7.70;5.82;;;25.30;96.40;;;;;;4986945;28;20190;-70
2022/06/20 07:34:02;;;;;;;8.02;5.95;;;25.40;95.20;;;;;;4976680;28;20190;-69
2022/06/20 07:36:53;;;;;;;7.03;5.60;;;25.40;92.60;;;;;;4988774;28;20193;-69
2022/06/20 07:39:30;;;;;;;8.77;5.15;;;25.40;94.80;;;;;;4972812;28;20229;-69
2022/06/20 07:42:06;;;;;;;8.30;5.70;;;25.40;95.10;;;;;;4994456;28;20188;-68
2022/06/20 07:44:42;;;;;;;9.07;5.70;;;25.40;95.40;;;;;;4995101;28;20185;-68
2022/06/20 07:47:53;;;;;;;6.97;5.72;;;25.40;95.00;;;;;;4995192;28;20211;-68
2022/06/20 07:50:34;;;;;;;9.77;5.95;;;25.40;95.50;;;;;;4954725;29;20233;-68
2022/06/20 07:53:33;;;;;;;7.53;5.95;;;25.40;94.40;;;;;;4972687;28;20213;-69
2022/06/20 07:56:09;;;;;;;8.90;5.60;;;25.40;94.00;;;;;;4975771;28;20181;-69
2022/06/20 07:58:44;;;;;;;9.77;5.70;;;25.40;94.50;;;;;;4982936;28;20275;-69
2022/06/20 08:01:21;;;;;;;8.45;5.15;;;25.40;94.30;;;;;;4994453;28;20204;-69
2022/06/20 08:04:11;;;;;;;7.35;5.50;;;25.40;92.40;;;;;;4994534;28;20637;-69
2022/06/20 08:06:49;;;;;;;8.18;6.22;;;25.30;92.20;;;;;;4986314;28;20276;-69
2022/06/20 08:09:46;;;;;;;6.47;5.20;;;25.30;92.10;;;;;;4994216;28;20210;-69
2022/06/20 08:12:24;;;;;;;7.47;5.63;;;25.30;92.60;;;;;;4995475;28;20224;-69
2022/06/20 08:14:56;;;;;;;7.53;5.55;;;25.40;92.50;;;;;;4995359;28;20188;-69
2022/06/20 08:17:23;;;;;;;7.28;5.55;;;25.40;92.60;;;;;;4977365;28;20221;-68
2022/06/20 08:19:50;;;;;;;6.60;5.72;;;25.40;92.40;;;;;;4974677;28;20256;-69
2022/06/20 08:22:42;;;;;;;7.47;5.80;;;25.40;92.40;;;;;;4990890;28;20642;-69
2022/06/20 08:25:35;;;;;;;7.47;5.35;;;25.30;92.30;;;;;;4990636;28;20181;-69
2022/06/20 08:28:14;;;;;;;7.13;5.75;;;25.40;91.70;;;;;;4989594;28;20665;-69
2022/06/20 08:31:00;;;;;;;6.40;5.53;;;25.30;91.80;;;;;;4989973;28;20224;-69
2022/06/20 08:33:41;;;;;;;7.22;5.88;;;25.30;91.30;;;;;;5010073;28;20208;-69
2022/06/20 08:36:40;;;;;;;6.55;5.25;;;25.30;92.10;;;;;;4993308;28;20200;-68
2022/06/20 08:39:28;;;;;;;7.82;5.05;;;25.40;92.40;;;;;;4993711;28;20200;-69
2022/06/20 08:42:08;;;;;;;7.45;5.70;;;25.30;91.80;;;;;;4994194;28;20231;-69
2022/06/20 08:45:09;;;;;;;6.00;5.20;;;25.30;91.40;;;;;;4993738;28;20188;-69
2022/06/20 08:48:08;;;;;;;6.20;5.05;;;25.30;91.10;;;;;;4994554;28;20181;-69
2022/06/20 08:50:52;;;;;;;8.88;5.68;;;25.40;91.60;;;;;;4991071;28;20314;-69
2022/06/20 08:53:36;;;;;;;6.10;5.50;;;25.40;91.40;;;;;;4973990;28;20228;-69
2022/06/20 08:56:20;;;;;;;6.28;5.18;;;25.40;90.70;;;;;;4973941;28;20178;-68
2022/06/20 08:59:27;;;;;;;7.32;5.10;;;25.40;90.10;;;;;;4973838;28;20228;-69
2022/06/20 09:03:02;;;;;;;7.18;4.90;;;25.40;90.70;;;;;;4989398;28;20209;-69
2022/06/20 09:05:50;;;;;;;5.50;4.85;;;25.40;90.10;;;;;;4918458;29;20198;-69
2022/06/20 09:08:40;;;;;;;6.70;5.20;;;25.40;90.30;;;;;;4933718;29;20246;-69
2022/06/20 09:11:33;;;;;;;4.85;4.45;;;25.40;90.60;;;;;;4974420;28;20279;-69
2022/06/20 09:14:15;;;;;;;6.65;5.93;;;25.40;90.40;;;;;;4974870;28;20196;-69
2022/06/20 09:17:07;;;;;;;5.43;4.93;;;25.40;90.50;;;;;;4972808;28;20181;-69
2022/06/20 09:20:05;;;;;;;7.55;4.85;;;25.40;90.20;;;;;;4974538;28;20295;-69
2022/06/20 09:22:59;;;;;;;5.85;5.22;;;25.40;90.10;;;;;;4973641;28;20182;-69
2022/06/20 09:26:08;;;;;;;5.97;5.30;;;25.40;90.50;;;;;;4973424;28;20188;-69
2022/06/20 09:29:34;;;;;;;8.43;5.15;;;25.40;90.50;;;;;;4973225;28;20185;-68
2022/06/20 09:32:27;;;;;;;5.45;4.95;;;25.40;90.10;;;;;;4989070;28;20196;-69
2022/06/20 09:35:23;;;;;;;5.90;5.38;;;25.40;90.40;;;;;;4979256;28;20228;-69
2022/06/20 09:38:21;;;;;;;6.10;5.28;;;25.50;90.10;;;;;;4991644;28;20220;-69
2022/06/20 09:41:08;;;;;;;5.97;5.20;;;25.60;89.70;;;;;;4983549;28;20201;-70
2022/06/20 09:44:04;;;;;;;7.55;5.75;;;25.60;90.20;;;;;;4986695;28;20213;-69
2022/06/20 09:47:14;;;;;;;6.82;4.97;;;25.70;90.90;;;;;;4990190;28;20327;-69
2022/06/20 09:50:38;;;;;;;8.43;5.72;;;25.70;90.60;;;;;;4976135;28;20213;-69
2022/06/20 09:53:45;;;;;;;6.32;5.38;;;25.70;90.00;;;;;;4942138;28;20214;-69
2022/06/20 09:56:28;;;;;;;5.50;5.00;;;25.70;90.20;;;;;;4950341;28;20229;-69
2022/06/20 09:59:36;;;;;;;6.80;5.05;;;25.70;89.70;;;;;;4987187;28;20719;-70
2022/06/20 10:02:33;;;;;;;5.65;5.13;;;25.70;89.00;;;;;;4964965;28;20216;-69
2022/06/20 10:05:27;;;;;;;5.95;4.88;;;25.70;90.60;;;;;;4992184;28;20189;-69
2022/06/20 10:08:14;;;;;;;6.10;5.05;;;25.70;90.20;;;;;;4991659;28;20648;-71
2022/06/20 10:11:17;;;;;;;9.82;5.18;;;25.60;90.00;;;;;;4992238;28;20205;-70
2022/06/20 10:14:11;;;;;;;8.48;5.18;;;25.60;90.00;;;;;;4969042;28;20197;-70
2022/06/20 10:17:01;;;;;;;5.57;5.03;;;25.50;90.00;;;;;;4952363;28;20201;-69
2022/06/20 10:19:42;;;;;;;7.07;5.20;;;25.50;90.50;;;;;;4956169;28;20226;-70
2022/06/20 10:22:34;;;;;;;5.95;5.35;;;25.50;90.10;;;;;;4956531;28;20194;-70
2022/06/20 10:25:02;;;;;;;7.10;5.90;;;25.50;90.10;;;;;;4972571;28;20185;-70
2022/06/20 10:28:04;;;;;;;8.32;5.90;;;25.50;89.30;;;;;;4987246;28;20219;-70
2022/06/20 10:31:11;;;;;;;11.27;7.07;;;25.50;90.10;;;;;;4991748;28;20204;-69
2022/06/20 10:33:56;;;;;;;8.77;5.93;;;25.50;90.00;;;;;;4992905;28;20196;-69
2022/06/20 10:36:53;;;;;;;15.18;11.80;;;25.50;90.00;;;;;;4975119;28;20193;-69
2022/06/20 10:39:49;;;;;;;15.70;12.10;;;25.50;89.50;;;;;;4968228;28;20221;-69
2022/06/20 10:42:30;;;;;;;68.63;47.33;;;25.50;89.40;;;;;;4992879;28;20180;-70
2022/06/20 10:45:32;;;;;;;51.58;35.22;;;25.50;89.80;;;;;;4991644;28;20189;-70
2022/06/20 10:48:47;;;;;;;47.42;32.85;;;25.50;89.10;;;;;;4992365;28;20247;-70
2022/06/20 10:51:54;;;;;;;54.55;39.63;;;25.60;88.40;;;;;;4995460;28;20180;-70
2022/06/20 10:54:54;;;;;;;80.75;58.38;;;25.50;88.50;;;;;;4995655;28;20180;-70
2022/06/20 10:57:34;;;;;;;85.35;63.42;;;25.50;89.00;;;;;;4994558;28;20216;-70
2022/06/20 11:00:11;;;;;;;99.20;71.03;;;25.50;89.80;;;;;;4989975;28;20219;-70
2022/06/20 11:02:55;;;;;;;106.13;78.35;;;25.60;89.00;;;;;;4995411;28;20177;-71
2022/06/20 11:05:29;;;;;;;113.60;82.40;;;25.50;88.60;;;;;;4995498;28;20185;-70
2022/06/20 11:08:14;;;;;;;113.35;83.93;;;25.60;88.90;;;;;;4975293;28;20189;-70
2022/06/20 11:11:16;;;;;;;116.55;88.32;;;25.50;88.60;;;;;;4978195;28;20220;-70
2022/06/20 11:14:04;;;;;;;113.05;85.15;;;25.50;88.50;;;;;;4996570;28;20173;-70
2022/06/20 11:17:19;;;;;;;113.63;87.82;;;25.50;88.80;;;;;;5011354;28;20181;-70
2022/06/20 11:20:01;;;;;;;122.05;96.13;;;25.50;88.80;;;;;;4957870;28;20231;-70
2022/06/20 11:22:44;;;;;;;119.18;89.75;;;25.50;88.20;;;;;;4994695;28;20273;-70
2022/06/20 11:25:22;;;;;;;104.85;80.93;;;25.60;88.00;;;;;;4991458;28;20196;-69
2022/06/20 11:28:19;;;;;;;124.10;91.35;;;25.50;88.20;;;;;;4983787;28;20248;-69
2022/06/20 11:31:15;;;;;;;120.75;86.60;;;25.60;88.30;;;;;;4972474;28;20216;-70
2022/06/20 11:34:10;;;;;;;132.85;102.63;;;25.50;87.20;;;;;;4985779;28;20201;-70
2022/06/20 11:37:23;;;;;;;124.72;97.03;;;25.50;87.40;;;;;;4977993;28;20185;-69
2022/06/20 11:40:32;;;;;;;107.57;83.15;;;25.50;87.40;;;;;;4975353;28;20221;-70
2022/06/20 11:43:43;;;;;;;125.60;101.10;;;25.50;85.60;;;;;;4975458;28;20209;-70
2022/06/20 11:46:46;;;;;;;104.47;82.82;;;25.50;85.80;;;;;;4976368;28;20174;-70
2022/06/20 11:49:49;;;;;;;110.95;87.93;;;25.50;85.90;;;;;;4988107;28;20636;-69
2022/06/20 11:52:53;;;;;;;115.28;90.07;;;25.60;86.80;;;;;;4982632;28;20186;-70
2022/06/20 11:55:36;;;;;;;105.95;83.88;;;25.60;84.90;;;;;;4971595;28;20228;-70
2022/06/20 11:58:23;;;;;;;93.97;78.43;;;25.70;84.90;;;;;;4986802;28;20319;-69
2022/06/20 12:00:57;;;;;;;101.45;77.55;;;25.70;85.40;;;;;;4993466;28;20209;-70
2022/06/20 12:03:58;;;;;;;115.35;89.53;;;25.70;85.40;;;;;;4974442;28;20653;-70
2022/06/20 12:06:44;;;;;;;118.05;93.13;;;25.70;86.30;;;;;;4977440;28;20192;-68
2022/06/20 12:09:21;;;;;;;105.10;85.15;;;25.70;86.00;;;;;;4981063;28;20217;-70
2022/06/20 12:12:12;;;;;;;107.30;85.93;;;25.70;86.20;;;;;;4984504;28;20632;-70
2022/06/20 12:15:30;;;;;;;99.88;78.45;;;25.70;86.70;;;;;;4995315;28;20188;-70
2022/06/20 12:18:34;;;;;;;103.10;81.82;;;25.70;86.60;;;;;;4927691;29;20227;-69
2022/06/20 12:24:03;;;;;;;96.35;78.03;;;25.70;86.50;;;;;;4975457;28;20173;-69
2022/06/20 12:26:39;;;;;;;106.90;82.88;;;25.80;85.80;;;;;;4984725;28;20228;-70
2022/06/20 12:29:22;;;;;;;97.90;79.45;;;25.80;86.10;;;;;;5008795;28;20185;-71
2022/06/20 12:31:54;;;;;;;101.25;83.65;;;25.70;86.70;;;;;;4977899;28;20311;-71
2022/06/20 12:34:59;;;;;;;100.72;84.07;;;25.80;87.60;;;;;;4993793;28;20196;-70
2022/06/20 12:37:38;;;;;;;91.72;73.35;;;25.80;87.60;;;;;;4970409;28;20220;-70
2022/06/20 12:40:44;;;;;;;83.43;65.32;;;25.80;87.80;;;;;;4974493;28;20209;-69
2022/06/20 12:43:23;;;;;;;87.80;72.70;;;25.80;87.10;;;;;;4963656;28;20231;-68
2022/06/20 12:46:20;;;;;;;82.22;67.20;;;25.80;88.20;;;;;;4992395;28;20189;-68
2022/06/20 12:49:31;;;;;;;88.97;69.93;;;25.90;89.10;;;;;;4993311;28;20272;-69
2022/06/20 12:52:11;;;;;;;86.28;71.68;;;25.90;89.00;;;;;;4934529;29;20199;-70
2022/06/20 12:54:57;;;;;;;81.03;67.25;;;25.90;89.80;;;;;;4986863;28;20284;-70
2022/06/20 12:58:09;;;;;;;75.07;60.40;;;25.80;88.90;;;;;;5009279;28;20211;-69
2022/06/20 13:00:46;;;;;;;72.75;60.70;;;25.80;89.20;;;;;;4993512;28;20251;-70
2022/06/20 13:03:38;;;;;;;82.07;68.80;;;25.80;89.20;;;;;;4993514;28;20176;-70
2022/06/20 13:06:31;;;;;;;82.72;65.07;;;25.70;89.10;;;;;;4993564;28;20173;-69
2022/06/20 13:09:21;;;;;;;79.53;64.97;;;25.70;89.00;;;;;;5009385;28;20189;-69
2022/06/20 13:12:28;;;;;;;81.22;61.55;;;25.70;89.70;;;;;;4994161;28;20177;-69
2022/06/20 13:15:40;;;;;;;83.20;66.65;;;25.70;89.90;;;;;;4994409;28;20169;-69
2022/06/20 13:18:49;;;;;;;74.65;60.15;;;25.70;89.40;;;;;;4982321;28;20201;-69
2022/06/20 13:21:40;;;;;;;69.75;57.25;;;25.70;89.30;;;;;;4973919;28;20170;-69
2022/06/20 13:24:42;;;;;;;64.13;53.35;;;25.70;89.50;;;;;;4986433;28;20189;-70
2022/06/20 13:27:31;;;;;;;65.43;51.13;;;25.70;87.90;;;;;;4981957;28;20637;-70
2022/06/20 13:30:21;;;;;;;71.47;56.88;;;25.70;88.10;;;;;;4975539;28;20227;-70
2022/06/20 13:33:16;;;;;;;70.25;55.05;;;25.80;88.90;;;;;;4992221;28;20185;-69
2022/06/20 13:36:12;;;;;;;61.03;51.03;;;25.80;88.30;;;;;;4990780;28;20181;-69
2022/06/20 13:38:49;;;;;;;55.22;46.50;;;25.80;87.20;;;;;;4993640;28;20233;-70
2022/06/20 13:41:23;;;;;;;60.22;49.97;;;25.80;87.10;;;;;;5009184;28;20176;-70
2022/06/20 13:44:29;;;;;;;54.30;45.42;;;25.70;86.70;;;;;;4989838;28;20181;-69
2022/06/20 13:47:16;;;;;;;60.28;47.45;;;25.70;87.00;;;;;;4973759;28;20185;-70
2022/06/20 13:50:14;;;;;;;57.20;46.55;;;25.70;87.70;;;;;;4957048;28;20585;-70
2022/06/20 13:53:08;;;;;;;54.15;44.88;;;25.70;87.80;;;;;;4980992;28;20184;-70
2022/06/20 13:55:50;;;;;;;48.80;40.13;;;25.70;86.80;;;;;;4975709;28;20211;-69
2022/06/20 13:58:48;;;;;;;46.88;41.00;;;25.70;86.90;;;;;;4972450;28;20255;-70
2022/06/20 14:01:17;;;;;;;48.30;41.45;;;25.60;86.30;;;;;;4972729;28;20634;-70
2022/06/20 14:03:58;;;;;;;53.53;43.97;;;25.70;86.50;;;;;;4972894;28;20264;-70
2022/06/20 14:06:40;;;;;;;51.53;43.13;;;25.60;86.60;;;;;;4978297;28;20189;-70
2022/06/20 14:09:15;;;;;;;48.38;39.38;;;25.60;86.60;;;;;;4990815;28;20174;-70